sensor_id;sensor_type;location;lat;lon;timestamp;P1;durP1;ratioP1;P2;durP2;ratioP2
21315;SDS011;10817;55.820;13.030;2024-03-06T00:01:21;13.30;;;7.82;;
21315;SDS011;10817;55.820;13.030;2024-03-06T00:03:49;16.38;;;8.32;;
21315;SDS011;10817;55.820;13.030;2024-03-06T00:06:28;13.50;;;7.35;;
21315;SDS011;10817;55.820;13.030;2024-03-06T00:21:24;13.45;;;7.57;;
21315;SDS011;10817;55.820;13.030;2024-03-06T00:23:51;13.25;;;7.72;;
21315;SDS011;10817;55.820;13.030;2024-03-06T00:26:18;14.85;;;7.82;;
21315;SDS011;10817;55.820;13.030;2024-03-06T00:28:44;12.65;;;8.13;;
21315;SDS011;10817;55.820;13.030;2024-03-06T00:31:11;12.73;;;8.27;;
21315;SDS011;10817;55.820;13.030;2024-03-06T00:33:39;11.52;;;7.55;;
21315;SDS011;10817;55.820;13.030;2024-03-06T00:36:06;13.80;;;8.02;;
21315;SDS011;10817;55.820;13.030;2024-03-06T00:38:35;14.05;;;8.75;;
21315;SDS011;10817;55.820;13.030;2024-03-06T00:41:02;15.30;;;8.30;;
21315;SDS011;10817;55.820;13.030;2024-03-06T00:43:29;15.50;;;7.85;;
21315;SDS011;10817;55.820;13.030;2024-03-06T00:45:56;12.52;;;8.38;;
21315;SDS011;10817;55.820;13.030;2024-03-06T00:48:24;13.13;;;8.30;;
21315;SDS011;10817;55.820;13.030;2024-03-06T00:50:51;15.43;;;8.32;;
21315;SDS011;10817;55.820;13.030;2024-03-06T00:53:18;15.32;;;8.50;;
21315;SDS011;10817;55.820;13.030;2024-03-06T00:55:47;15.20;;;8.48;;
21315;SDS011;10817;55.820;13.030;2024-03-06T00:58:14;15.02;;;8.60;;
21315;SDS011;10817;55.820;13.030;2024-03-06T01:00:41;13.50;;;8.48;;
21315;SDS011;10817;55.820;13.030;2024-03-06T01:03:08;14.27;;;8.63;;
21315;SDS011;10817;55.820;13.030;2024-03-06T01:05:36;12.95;;;8.63;;
21315;SDS011;10817;55.820;13.030;2024-03-06T01:08:09;13.48;;;8.15;;
21315;SDS011;10817;55.820;13.030;2024-03-06T01:42:49;17.00;;;9.30;;
21315;SDS011;10817;55.820;13.030;2024-03-06T01:45:16;14.93;;;8.35;;
21315;SDS011;10817;55.820;13.030;2024-03-06T01:47:45;15.80;;;8.55;;
21315;SDS011;10817;55.820;13.030;2024-03-06T01:50:12;16.23;;;8.52;;
21315;SDS011;10817;55.820;13.030;2024-03-06T01:52:39;14.68;;;8.80;;
21315;SDS011;10817;55.820;13.030;2024-03-06T01:55:08;17.25;;;9.65;;
21315;SDS011;10817;55.820;13.030;2024-03-06T01:57:35;19.40;;;10.38;;
21315;SDS011;10817;55.820;13.030;2024-03-06T02:00:08;18.50;;;9.27;;
21315;SDS011;10817;55.820;13.030;2024-03-06T02:02:39;16.15;;;9.65;;
21315;SDS011;10817;55.820;13.030;2024-03-06T02:05:07;16.20;;;9.07;;
21315;SDS011;10817;55.820;13.030;2024-03-06T02:07:35;21.88;;;9.73;;
21315;SDS011;10817;55.820;13.030;2024-03-06T02:10:05;18.67;;;9.90;;
21315;SDS011;10817;55.820;13.030;2024-03-06T02:12:35;24.38;;;10.13;;
21315;SDS011;10817;55.820;13.030;2024-03-06T02:15:03;17.55;;;10.00;;
21315;SDS011;10817;55.820;13.030;2024-03-06T02:17:32;21.27;;;10.38;;
21315;SDS011;10817;55.820;13.030;2024-03-06T02:19:59;20.52;;;10.20;;
21315;SDS011;10817;55.820;13.030;2024-03-06T02:22:27;26.50;;;9.85;;
21315;SDS011;10817;55.820;13.030;2024-03-06T02:24:54;21.70;;;10.32;;
21315;SDS011;10817;55.820;13.030;2024-03-06T02:27:21;18.05;;;9.57;;
21315;SDS011;10817;55.820;13.030;2024-03-06T02:29:48;19.70;;;10.23;;
21315;SDS011;10817;55.820;13.030;2024-03-06T02:32:15;21.10;;;10.40;;
21315;SDS011;10817;55.820;13.030;2024-03-06T02:34:43;18.95;;;10.10;;
21315;SDS011;10817;55.820;13.030;2024-03-06T02:37:10;20.05;;;9.73;;
21315;SDS011;10817;55.820;13.030;2024-03-06T02:39:38;22.33;;;9.75;;
21315;SDS011;10817;55.820;13.030;2024-03-06T02:42:05;18.67;;;9.88;;
21315;SDS011;10817;55.820;13.030;2024-03-06T02:44:32;18.88;;;9.65;;
21315;SDS011;10817;55.820;13.030;2024-03-06T02:46:59;18.88;;;9.52;;
21315;SDS011;10817;55.820;13.030;2024-03-06T02:49:26;23.48;;;10.40;;
21315;SDS011;10817;55.820;13.030;2024-03-06T02:51:53;20.75;;;9.57;;
21315;SDS011;10817;55.820;13.030;2024-03-06T02:54:20;23.05;;;10.98;;
21315;SDS011;10817;55.820;13.030;2024-03-06T02:56:48;21.55;;;10.00;;
21315;SDS011;10817;55.820;13.030;2024-03-06T02:59:17;21.15;;;10.15;;
21315;SDS011;10817;55.820;13.030;2024-03-06T03:01:44;15.50;;;9.43;;
21315;SDS011;10817;55.820;13.030;2024-03-06T03:04:12;26.83;;;9.80;;
21315;SDS011;10817;55.820;13.030;2024-03-06T03:06:39;17.95;;;9.52;;
21315;SDS011;10817;55.820;13.030;2024-03-06T03:09:06;22.55;;;10.00;;
21315;SDS011;10817;55.820;13.030;2024-03-06T03:11:36;19.70;;;9.88;;
21315;SDS011;10817;55.820;13.030;2024-03-06T03:14:04;17.55;;;9.52;;
21315;SDS011;10817;55.820;13.030;2024-03-06T03:16:31;23.15;;;9.27;;
21315;SDS011;10817;55.820;13.030;2024-03-06T03:18:58;20.95;;;10.45;;
21315;SDS011;10817;55.820;13.030;2024-03-06T03:21:25;19.60;;;9.85;;
21315;SDS011;10817;55.820;13.030;2024-03-06T03:23:52;19.38;;;9.23;;
21315;SDS011;10817;55.820;13.030;2024-03-06T03:26:19;22.17;;;10.13;;
21315;SDS011;10817;55.820;13.030;2024-03-06T03:28:46;17.50;;;9.00;;
21315;SDS011;10817;55.820;13.030;2024-03-06T03:31:14;24.98;;;9.75;;
21315;SDS011;10817;55.820;13.030;2024-03-06T03:33:41;21.73;;;9.45;;
21315;SDS011;10817;55.820;13.030;2024-03-06T03:36:08;22.98;;;9.75;;
21315;SDS011;10817;55.820;13.030;2024-03-06T03:38:35;18.98;;;8.88;;
21315;SDS011;10817;55.820;13.030;2024-03-06T03:41:06;21.10;;;10.07;;
21315;SDS011;10817;55.820;13.030;2024-03-06T03:43:34;19.23;;;9.55;;
21315;SDS011;10817;55.820;13.030;2024-03-06T03:46:00;20.90;;;9.63;;
21315;SDS011;10817;55.820;13.030;2024-03-06T03:48:30;21.30;;;9.73;;
21315;SDS011;10817;55.820;13.030;2024-03-06T03:51:00;20.92;;;10.85;;
21315;SDS011;10817;55.820;13.030;2024-03-06T03:53:28;18.92;;;9.43;;
21315;SDS011;10817;55.820;13.030;2024-03-06T03:55:55;19.13;;;9.73;;
21315;SDS011;10817;55.820;13.030;2024-03-06T03:58:22;18.30;;;9.38;;
21315;SDS011;10817;55.820;13.030;2024-03-06T04:00:49;19.15;;;9.52;;
21315;SDS011;10817;55.820;13.030;2024-03-06T04:03:18;26.95;;;9.82;;
21315;SDS011;10817;55.820;13.030;2024-03-06T04:05:47;16.85;;;9.20;;
21315;SDS011;10817;55.820;13.030;2024-03-06T04:08:14;24.63;;;10.48;;
21315;SDS011;10817;55.820;13.030;2024-03-06T04:10:41;17.70;;;9.57;;
21315;SDS011;10817;55.820;13.030;2024-03-06T04:13:10;28.35;;;10.70;;
21315;SDS011;10817;55.820;13.030;2024-03-06T04:15:37;20.17;;;9.48;;
21315;SDS011;10817;55.820;13.030;2024-03-06T04:18:04;20.20;;;9.07;;
21315;SDS011;10817;55.820;13.030;2024-03-06T04:20:31;19.13;;;10.13;;
21315;SDS011;10817;55.820;13.030;2024-03-06T04:22:59;22.63;;;10.63;;
21315;SDS011;10817;55.820;13.030;2024-03-06T04:25:27;18.08;;;9.52;;
21315;SDS011;10817;55.820;13.030;2024-03-06T04:27:53;22.15;;;10.52;;
21315;SDS011;10817;55.820;13.030;2024-03-06T04:30:20;20.30;;;9.35;;
21315;SDS011;10817;55.820;13.030;2024-03-06T04:32:47;17.73;;;9.48;;
21315;SDS011;10817;55.820;13.030;2024-03-06T04:35:14;18.45;;;9.75;;
21315;SDS011;10817;55.820;13.030;2024-03-06T04:37:41;17.70;;;9.13;;
21315;SDS011;10817;55.820;13.030;2024-03-06T04:40:10;18.58;;;9.50;;
21315;SDS011;10817;55.820;13.030;2024-03-06T04:42:40;19.98;;;9.35;;
21315;SDS011;10817;55.820;13.030;2024-03-06T04:45:09;21.75;;;9.55;;
21315;SDS011;10817;55.820;13.030;2024-03-06T04:47:37;19.45;;;8.18;;
21315;SDS011;10817;55.820;13.030;2024-03-06T04:50:07;17.77;;;8.43;;
21315;SDS011;10817;55.820;13.030;2024-03-06T04:52:35;19.67;;;8.75;;
21315;SDS011;10817;55.820;13.030;2024-03-06T04:55:02;15.80;;;9.35;;
21315;SDS011;10817;55.820;13.030;2024-03-06T04:57:31;18.25;;;9.27;;
21315;SDS011;10817;55.820;13.030;2024-03-06T04:59:58;16.45;;;9.23;;
21315;SDS011;10817;55.820;13.030;2024-03-06T05:02:25;16.10;;;9.00;;
21315;SDS011;10817;55.820;13.030;2024-03-06T05:04:52;16.67;;;8.93;;
21315;SDS011;10817;55.820;13.030;2024-03-06T05:07:19;17.20;;;8.43;;
21315;SDS011;10817;55.820;13.030;2024-03-06T05:09:46;16.98;;;8.68;;
21315;SDS011;10817;55.820;13.030;2024-03-06T05:12:12;17.38;;;8.73;;
21315;SDS011;10817;55.820;13.030;2024-03-06T05:14:40;18.38;;;9.35;;
21315;SDS011;10817;55.820;13.030;2024-03-06T05:17:07;18.02;;;8.02;;
21315;SDS011;10817;55.820;13.030;2024-03-06T05:19:35;16.25;;;8.50;;
21315;SDS011;10817;55.820;13.030;2024-03-06T05:22:03;15.30;;;8.35;;
21315;SDS011;10817;55.820;13.030;2024-03-06T05:24:30;16.33;;;8.68;;
21315;SDS011;10817;55.820;13.030;2024-03-06T05:26:57;16.70;;;8.52;;
21315;SDS011;10817;55.820;13.030;2024-03-06T05:29:24;14.93;;;8.68;;
21315;SDS011;10817;55.820;13.030;2024-03-06T05:31:52;14.23;;;8.18;;
21315;SDS011;10817;55.820;13.030;2024-03-06T05:34:21;14.38;;;7.75;;
21315;SDS011;10817;55.820;13.030;2024-03-06T05:36:48;14.27;;;7.65;;
21315;SDS011;10817;55.820;13.030;2024-03-06T05:39:15;21.20;;;7.95;;
21315;SDS011;10817;55.820;13.030;2024-03-06T05:41:42;15.35;;;7.20;;
21315;SDS011;10817;55.820;13.030;2024-03-06T05:44:10;20.55;;;7.65;;
21315;SDS011;10817;55.820;13.030;2024-03-06T05:46:37;12.70;;;6.95;;
21315;SDS011;10817;55.820;13.030;2024-03-06T05:49:05;16.08;;;7.38;;
21315;SDS011;10817;55.820;13.030;2024-03-06T05:51:32;12.15;;;6.50;;
21315;SDS011;10817;55.820;13.030;2024-03-06T05:53:59;14.57;;;6.88;;
21315;SDS011;10817;55.820;13.030;2024-03-06T05:56:26;9.55;;;6.20;;
21315;SDS011;10817;55.820;13.030;2024-03-06T05:58:53;9.40;;;5.93;;
21315;SDS011;10817;55.820;13.030;2024-03-06T06:01:20;8.45;;;5.93;;
21315;SDS011;10817;55.820;13.030;2024-03-06T06:03:47;8.05;;;5.35;;
21315;SDS011;10817;55.820;13.030;2024-03-06T06:06:15;9.50;;;5.82;;
21315;SDS011;10817;55.820;13.030;2024-03-06T06:08:42;7.25;;;4.97;;
21315;SDS011;10817;55.820;13.030;2024-03-06T06:11:10;8.23;;;5.28;;
21315;SDS011;10817;55.820;13.030;2024-03-06T06:13:37;8.32;;;4.85;;
21315;SDS011;10817;55.820;13.030;2024-03-06T06:16:05;7.03;;;4.80;;
21315;SDS011;10817;55.820;13.030;2024-03-06T06:18:33;5.65;;;4.40;;
21315;SDS011;10817;55.820;13.030;2024-03-06T06:20:59;6.80;;;4.95;;
21315;SDS011;10817;55.820;13.030;2024-03-06T06:23:28;5.47;;;4.15;;
21315;SDS011;10817;55.820;13.030;2024-03-06T06:25:55;6.57;;;4.55;;
21315;SDS011;10817;55.820;13.030;2024-03-06T06:28:22;6.15;;;4.30;;
21315;SDS011;10817;55.820;13.030;2024-03-06T06:30:49;6.45;;;4.13;;
21315;SDS011;10817;55.820;13.030;2024-03-06T06:33:17;6.05;;;4.20;;
21315;SDS011;10817;55.820;13.030;2024-03-06T06:35:44;6.28;;;4.30;;
21315;SDS011;10817;55.820;13.030;2024-03-06T06:38:11;4.85;;;3.75;;
21315;SDS011;10817;55.820;13.030;2024-03-06T06:40:40;5.50;;;4.35;;
21315;SDS011;10817;55.820;13.030;2024-03-06T06:43:06;8.50;;;4.13;;
21315;SDS011;10817;55.820;13.030;2024-03-06T06:45:33;5.18;;;3.75;;
21315;SDS011;10817;55.820;13.030;2024-03-06T06:48:00;5.55;;;3.85;;
21315;SDS011;10817;55.820;13.030;2024-03-06T06:50:27;6.18;;;4.28;;
21315;SDS011;10817;55.820;13.030;2024-03-06T06:52:55;5.53;;;4.05;;
21315;SDS011;10817;55.820;13.030;2024-03-06T06:55:24;6.82;;;4.18;;
21315;SDS011;10817;55.820;13.030;2024-03-06T06:57:53;7.10;;;4.65;;
21315;SDS011;10817;55.820;13.030;2024-03-06T07:00:20;6.55;;;4.22;;
21315;SDS011;10817;55.820;13.030;2024-03-06T07:02:48;7.72;;;4.60;;
21315;SDS011;10817;55.820;13.030;2024-03-06T07:05:15;6.72;;;4.38;;
21315;SDS011;10817;55.820;13.030;2024-03-06T07:07:43;6.95;;;4.60;;
21315;SDS011;10817;55.820;13.030;2024-03-06T07:10:10;6.30;;;4.82;;
21315;SDS011;10817;55.820;13.030;2024-03-06T07:12:37;7.05;;;4.47;;
21315;SDS011;10817;55.820;13.030;2024-03-06T07:15:06;8.80;;;4.90;;
21315;SDS011;10817;55.820;13.030;2024-03-06T07:17:33;7.65;;;5.22;;
21315;SDS011;10817;55.820;13.030;2024-03-06T07:20:00;8.93;;;4.88;;
21315;SDS011;10817;55.820;13.030;2024-03-06T07:22:27;6.93;;;4.90;;
21315;SDS011;10817;55.820;13.030;2024-03-06T07:24:53;8.68;;;5.15;;
21315;SDS011;10817;55.820;13.030;2024-03-06T07:27:21;9.25;;;4.80;;
21315;SDS011;10817;55.820;13.030;2024-03-06T07:29:48;9.73;;;5.43;;
21315;SDS011;10817;55.820;13.030;2024-03-06T07:32:16;6.70;;;4.47;;
21315;SDS011;10817;55.820;13.030;2024-03-06T07:34:43;7.00;;;4.75;;
21315;SDS011;10817;55.820;13.030;2024-03-06T07:37:10;10.75;;;5.00;;
21315;SDS011;10817;55.820;13.030;2024-03-06T07:39:37;7.25;;;5.15;;
21315;SDS011;10817;55.820;13.030;2024-03-06T07:42:04;9.00;;;5.70;;
21315;SDS011;10817;55.820;13.030;2024-03-06T07:44:31;8.68;;;5.43;;
21315;SDS011;10817;55.820;13.030;2024-03-06T07:47:00;6.78;;;5.15;;
21315;SDS011;10817;55.820;13.030;2024-03-06T07:49:29;9.88;;;5.55;;
21315;SDS011;10817;55.820;13.030;2024-03-06T07:51:56;7.55;;;5.32;;
21315;SDS011;10817;55.820;13.030;2024-03-06T07:54:24;7.10;;;4.97;;
21315;SDS011;10817;55.820;13.030;2024-03-06T07:56:51;7.43;;;5.18;;
21315;SDS011;10817;55.820;13.030;2024-03-06T07:59:18;7.70;;;5.30;;
21315;SDS011;10817;55.820;13.030;2024-03-06T08:01:45;9.27;;;5.40;;
21315;SDS011;10817;55.820;13.030;2024-03-06T08:04:13;7.82;;;5.40;;
21315;SDS011;10817;55.820;13.030;2024-03-06T08:06:41;9.13;;;5.53;;
21315;SDS011;10817;55.820;13.030;2024-03-06T08:09:08;7.55;;;4.72;;
21315;SDS011;10817;55.820;13.030;2024-03-06T08:11:36;7.13;;;4.63;;
21315;SDS011;10817;55.820;13.030;2024-03-06T08:14:03;8.30;;;5.40;;
21315;SDS011;10817;55.820;13.030;2024-03-06T08:16:29;9.18;;;5.57;;
21315;SDS011;10817;55.820;13.030;2024-03-06T08:18:56;11.18;;;5.75;;
21315;SDS011;10817;55.820;13.030;2024-03-06T08:21:25;8.15;;;5.32;;
21315;SDS011;10817;55.820;13.030;2024-03-06T08:23:53;10.07;;;5.65;;
21315;SDS011;10817;55.820;13.030;2024-03-06T08:26:20;12.90;;;5.93;;
21315;SDS011;10817;55.820;13.030;2024-03-06T08:28:48;8.85;;;5.50;;
21315;SDS011;10817;55.820;13.030;2024-03-06T08:31:15;8.82;;;5.68;;
21315;SDS011;10817;55.820;13.030;2024-03-06T08:33:42;10.73;;;6.07;;
21315;SDS011;10817;55.820;13.030;2024-03-06T08:36:09;12.48;;;5.43;;
21315;SDS011;10817;55.820;13.030;2024-03-06T08:38:36;11.77;;;5.45;;
21315;SDS011;10817;55.820;13.030;2024-03-06T08:41:04;11.93;;;6.30;;
21315;SDS011;10817;55.820;13.030;2024-03-06T08:43:31;10.80;;;6.30;;
21315;SDS011;10817;55.820;13.030;2024-03-06T08:45:58;9.02;;;6.00;;
21315;SDS011;10817;55.820;13.030;2024-03-06T08:48:25;16.38;;;7.38;;
21315;SDS011;10817;55.820;13.030;2024-03-06T08:50:52;13.48;;;6.95;;
21315;SDS011;10817;55.820;13.030;2024-03-06T08:53:19;10.25;;;6.57;;
21315;SDS011;10817;55.820;13.030;2024-03-06T08:55:47;17.88;;;7.40;;
21315;SDS011;10817;55.820;13.030;2024-03-06T08:58:16;10.90;;;6.90;;
21315;SDS011;10817;55.820;13.030;2024-03-06T09:00:45;10.93;;;7.00;;
21315;SDS011;10817;55.820;13.030;2024-03-06T09:03:13;13.60;;;7.60;;
21315;SDS011;10817;55.820;13.030;2024-03-06T09:05:41;14.15;;;7.50;;
21315;SDS011;10817;55.820;13.030;2024-03-06T09:08:27;17.65;;;7.72;;
21315;SDS011;10817;55.820;13.030;2024-03-06T09:10:55;13.20;;;7.10;;
21315;SDS011;10817;55.820;13.030;2024-03-06T09:13:25;13.18;;;6.85;;
21315;SDS011;10817;55.820;13.030;2024-03-06T09:15:52;14.60;;;7.45;;
21315;SDS011;10817;55.820;13.030;2024-03-06T09:18:19;15.55;;;6.90;;
21315;SDS011;10817;55.820;13.030;2024-03-06T09:20:46;12.23;;;7.10;;
21315;SDS011;10817;55.820;13.030;2024-03-06T09:23:13;13.07;;;6.38;;
21315;SDS011;10817;55.820;13.030;2024-03-06T09:25:41;9.82;;;5.95;;
21315;SDS011;10817;55.820;13.030;2024-03-06T09:28:08;17.33;;;6.57;;
21315;SDS011;10817;55.820;13.030;2024-03-06T09:30:36;14.95;;;6.70;;
21315;SDS011;10817;55.820;13.030;2024-03-06T09:33:03;12.23;;;6.30;;
21315;SDS011;10817;55.820;13.030;2024-03-06T09:35:30;10.70;;;6.70;;
21315;SDS011;10817;55.820;13.030;2024-03-06T09:37:58;12.18;;;6.45;;
21315;SDS011;10817;55.820;13.030;2024-03-06T09:40:26;15.60;;;6.28;;
21315;SDS011;10817;55.820;13.030;2024-03-06T09:42:54;11.75;;;6.00;;
21315;SDS011;10817;55.820;13.030;2024-03-06T09:45:21;10.85;;;5.97;;
21315;SDS011;10817;55.820;13.030;2024-03-06T09:47:50;13.32;;;6.50;;
21315;SDS011;10817;55.820;13.030;2024-03-06T09:50:17;12.75;;;6.32;;
21315;SDS011;10817;55.820;13.030;2024-03-06T09:52:50;12.48;;;6.28;;
21315;SDS011;10817;55.820;13.030;2024-03-06T09:55:18;13.98;;;6.88;;
21315;SDS011;10817;55.820;13.030;2024-03-06T09:57:45;14.30;;;7.20;;
21315;SDS011;10817;55.820;13.030;2024-03-06T10:00:12;17.25;;;7.30;;
21315;SDS011;10817;55.820;13.030;2024-03-06T10:02:41;14.05;;;6.90;;
21315;SDS011;10817;55.820;13.030;2024-03-06T10:05:22;17.50;;;7.15;;
21315;SDS011;10817;55.820;13.030;2024-03-06T10:07:50;11.45;;;6.53;;
21315;SDS011;10817;55.820;13.030;2024-03-06T10:10:18;14.20;;;7.20;;
21315;SDS011;10817;55.820;13.030;2024-03-06T10:12:45;14.82;;;7.32;;
21315;SDS011;10817;55.820;13.030;2024-03-06T10:15:14;12.50;;;7.15;;
21315;SDS011;10817;55.820;13.030;2024-03-06T10:17:41;20.73;;;7.38;;
21315;SDS011;10817;55.820;13.030;2024-03-06T10:20:17;12.93;;;7.13;;
21315;SDS011;10817;55.820;13.030;2024-03-06T10:22:52;12.48;;;6.90;;
21315;SDS011;10817;55.820;13.030;2024-03-06T10:25:20;15.40;;;7.25;;
21315;SDS011;10817;55.820;13.030;2024-03-06T10:28:02;12.43;;;7.38;;
21315;SDS011;10817;55.820;13.030;2024-03-06T10:30:30;18.02;;;7.70;;
21315;SDS011;10817;55.820;13.030;2024-03-06T10:32:58;14.68;;;7.10;;
21315;SDS011;10817;55.820;13.030;2024-03-06T10:35:25;18.17;;;7.75;;
21315;SDS011;10817;55.820;13.030;2024-03-06T10:37:54;14.18;;;7.70;;
21315;SDS011;10817;55.820;13.030;2024-03-06T10:40:21;16.30;;;7.88;;
21315;SDS011;10817;55.820;13.030;2024-03-06T10:42:49;16.95;;;7.32;;
21315;SDS011;10817;55.820;13.030;2024-03-06T10:45:17;23.80;;;7.82;;
21315;SDS011;10817;55.820;13.030;2024-03-06T10:47:47;13.07;;;7.07;;
21315;SDS011;10817;55.820;13.030;2024-03-06T10:50:15;13.23;;;7.18;;
21315;SDS011;10817;55.820;13.030;2024-03-06T10:52:42;12.20;;;7.13;;
21315;SDS011;10817;55.820;13.030;2024-03-06T10:55:13;19.80;;;7.68;;
21315;SDS011;10817;55.820;13.030;2024-03-06T10:57:42;18.95;;;7.45;;
21315;SDS011;10817;55.820;13.030;2024-03-06T11:00:10;12.48;;;7.07;;
21315;SDS011;10817;55.820;13.030;2024-03-06T11:02:43;14.52;;;7.00;;
21315;SDS011;10817;55.820;13.030;2024-03-06T11:05:14;15.57;;;6.70;;
21315;SDS011;10817;55.820;13.030;2024-03-06T11:07:42;17.73;;;7.00;;
21315;SDS011;10817;55.820;13.030;2024-03-06T11:10:10;15.15;;;6.43;;
21315;SDS011;10817;55.820;13.030;2024-03-06T11:12:43;13.57;;;7.13;;
21315;SDS011;10817;55.820;13.030;2024-03-06T11:15:14;12.15;;;7.43;;
21315;SDS011;10817;55.820;13.030;2024-03-06T11:17:42;14.32;;;7.13;;
21315;SDS011;10817;55.820;13.030;2024-03-06T11:20:13;13.90;;;7.40;;
21315;SDS011;10817;55.820;13.030;2024-03-06T11:28:35;14.55;;;6.55;;
21315;SDS011;10817;55.820;13.030;2024-03-06T11:31:05;14.45;;;6.07;;
21315;SDS011;10817;55.820;13.030;2024-03-06T11:33:37;12.52;;;6.68;;
21315;SDS011;10817;55.820;13.030;2024-03-06T11:36:12;14.57;;;7.10;;
21315;SDS011;10817;55.820;13.030;2024-03-06T11:38:47;18.45;;;6.85;;
21315;SDS011;10817;55.820;13.030;2024-03-06T11:41:18;15.85;;;7.03;;
21315;SDS011;10817;55.820;13.030;2024-03-06T11:43:47;14.18;;;7.13;;
21315;SDS011;10817;55.820;13.030;2024-03-06T11:46:18;15.48;;;6.90;;
21315;SDS011;10817;55.820;13.030;2024-03-06T11:48:51;13.75;;;6.95;;
21315;SDS011;10817;55.820;13.030;2024-03-06T11:51:19;15.15;;;7.15;;
21315;SDS011;10817;55.820;13.030;2024-03-06T11:53:49;16.33;;;6.70;;
21315;SDS011;10817;55.820;13.030;2024-03-06T11:56:16;14.15;;;6.88;;
21315;SDS011;10817;55.820;13.030;2024-03-06T11:58:44;16.75;;;7.20;;
21315;SDS011;10817;55.820;13.030;2024-03-06T12:01:13;13.18;;;7.07;;
21315;SDS011;10817;55.820;13.030;2024-03-06T12:03:41;14.35;;;7.82;;
21315;SDS011;10817;55.820;13.030;2024-03-06T12:06:08;16.80;;;7.57;;
21315;SDS011;10817;55.820;13.030;2024-03-06T12:08:35;19.02;;;7.18;;
21315;SDS011;10817;55.820;13.030;2024-03-06T12:11:04;15.43;;;7.30;;
21315;SDS011;10817;55.820;13.030;2024-03-06T12:13:33;13.90;;;7.03;;
21315;SDS011;10817;55.820;13.030;2024-03-06T12:16:06;13.23;;;7.25;;
21315;SDS011;10817;55.820;13.030;2024-03-06T12:18:33;14.68;;;6.70;;
21315;SDS011;10817;55.820;13.030;2024-03-06T12:21:01;12.80;;;6.88;;
21315;SDS011;10817;55.820;13.030;2024-03-06T12:23:29;15.73;;;6.72;;
21315;SDS011;10817;55.820;13.030;2024-03-06T12:26:02;13.32;;;6.72;;
21315;SDS011;10817;55.820;13.030;2024-03-06T12:28:30;14.80;;;7.25;;
21315;SDS011;10817;55.820;13.030;2024-03-06T12:30:57;12.60;;;6.82;;
21315;SDS011;10817;55.820;13.030;2024-03-06T12:33:27;13.20;;;7.18;;
21315;SDS011;10817;55.820;13.030;2024-03-06T12:36:01;16.30;;;7.40;;
21315;SDS011;10817;55.820;13.030;2024-03-06T12:38:29;13.25;;;6.88;;
21315;SDS011;10817;55.820;13.030;2024-03-06T12:40:57;12.98;;;6.63;;
21315;SDS011;10817;55.820;13.030;2024-03-06T12:43:24;13.50;;;7.15;;
21315;SDS011;10817;55.820;13.030;2024-03-06T12:45:51;11.90;;;6.57;;
21315;SDS011;10817;55.820;13.030;2024-03-06T12:48:20;13.32;;;6.72;;
21315;SDS011;10817;55.820;13.030;2024-03-06T12:50:48;11.75;;;5.90;;
21315;SDS011;10817;55.820;13.030;2024-03-06T12:53:17;15.50;;;6.93;;
21315;SDS011;10817;55.820;13.030;2024-03-06T12:55:45;14.52;;;7.00;;
21315;SDS011;10817;55.820;13.030;2024-03-06T12:58:12;15.18;;;7.53;;
21315;SDS011;10817;55.820;13.030;2024-03-06T13:00:39;11.73;;;6.80;;
21315;SDS011;10817;55.820;13.030;2024-03-06T13:03:06;12.77;;;6.72;;
21315;SDS011;10817;55.820;13.030;2024-03-06T13:05:33;12.25;;;6.88;;
21315;SDS011;10817;55.820;13.030;2024-03-06T13:08:01;15.93;;;6.78;;
21315;SDS011;10817;55.820;13.030;2024-03-06T13:10:29;14.00;;;6.30;;
21315;SDS011;10817;55.820;13.030;2024-03-06T13:12:55;17.75;;;7.32;;
21315;SDS011;10817;55.820;13.030;2024-03-06T13:15:22;15.00;;;6.72;;
21315;SDS011;10817;55.820;13.030;2024-03-06T13:17:49;15.05;;;7.00;;
21315;SDS011;10817;55.820;13.030;2024-03-06T13:20:17;16.02;;;6.57;;
21315;SDS011;10817;55.820;13.030;2024-03-06T13:22:44;13.32;;;6.35;;
21315;SDS011;10817;55.820;13.030;2024-03-06T13:25:13;20.75;;;6.40;;
21315;SDS011;10817;55.820;13.030;2024-03-06T13:27:41;14.20;;;6.68;;
21315;SDS011;10817;55.820;13.030;2024-03-06T13:30:23;14.27;;;6.57;;
21315;SDS011;10817;55.820;13.030;2024-03-06T13:33:01;14.15;;;6.57;;
21315;SDS011;10817;55.820;13.030;2024-03-06T13:41:10;10.90;;;6.53;;
21315;SDS011;10817;55.820;13.030;2024-03-06T13:43:37;14.35;;;6.47;;
21315;SDS011;10817;55.820;13.030;2024-03-06T13:46:04;12.10;;;5.90;;
21315;SDS011;10817;55.820;13.030;2024-03-06T13:48:31;14.27;;;6.15;;
21315;SDS011;10817;55.820;13.030;2024-03-06T13:50:58;12.40;;;6.35;;
21315;SDS011;10817;55.820;13.030;2024-03-06T13:53:25;11.23;;;6.72;;
21315;SDS011;10817;55.820;13.030;2024-03-06T13:55:52;11.57;;;6.03;;
21315;SDS011;10817;55.820;13.030;2024-03-06T13:58:21;13.68;;;5.97;;
21315;SDS011;10817;55.820;13.030;2024-03-06T14:00:47;9.43;;;5.80;;
21315;SDS011;10817;55.820;13.030;2024-03-06T14:03:14;15.07;;;6.15;;
21315;SDS011;10817;55.820;13.030;2024-03-06T14:05:41;11.77;;;6.20;;
21315;SDS011;10817;55.820;13.030;2024-03-06T14:08:08;13.50;;;6.13;;
21315;SDS011;10817;55.820;13.030;2024-03-06T14:10:37;10.75;;;6.32;;
21315;SDS011;10817;55.820;13.030;2024-03-06T14:13:04;12.98;;;6.05;;
21315;SDS011;10817;55.820;13.030;2024-03-06T14:15:33;11.68;;;6.10;;
21315;SDS011;10817;55.820;13.030;2024-03-06T14:18:00;10.98;;;6.13;;
21315;SDS011;10817;55.820;13.030;2024-03-06T14:20:27;11.10;;;6.25;;
21315;SDS011;10817;55.820;13.030;2024-03-06T14:22:54;8.35;;;5.38;;
21315;SDS011;10817;55.820;13.030;2024-03-06T14:25:21;10.48;;;5.90;;
21315;SDS011;10817;55.820;13.030;2024-03-06T14:27:48;12.43;;;6.47;;
21315;SDS011;10817;55.820;13.030;2024-03-06T14:30:15;16.13;;;6.43;;
21315;SDS011;10817;55.820;13.030;2024-03-06T14:32:45;8.75;;;6.30;;
21315;SDS011;10817;55.820;13.030;2024-03-06T14:35:12;10.95;;;5.95;;
21315;SDS011;10817;55.820;13.030;2024-03-06T14:37:38;10.25;;;5.93;;
21315;SDS011;10817;55.820;13.030;2024-03-06T14:40:06;12.93;;;6.30;;
21315;SDS011;10817;55.820;13.030;2024-03-06T14:42:33;11.00;;;5.47;;
21315;SDS011;10817;55.820;13.030;2024-03-06T14:45:00;8.55;;;5.53;;
21315;SDS011;10817;55.820;13.030;2024-03-06T14:47:30;10.07;;;5.30;;
21315;SDS011;10817;55.820;13.030;2024-03-06T14:49:58;9.02;;;5.40;;
21315;SDS011;10817;55.820;13.030;2024-03-06T14:52:25;8.77;;;5.30;;
21315;SDS011;10817;55.820;13.030;2024-03-06T14:54:52;8.50;;;5.10;;
21315;SDS011;10817;55.820;13.030;2024-03-06T14:57:19;11.68;;;5.68;;
21315;SDS011;10817;55.820;13.030;2024-03-06T14:59:47;8.15;;;5.18;;
21315;SDS011;10817;55.820;13.030;2024-03-06T15:02:21;10.48;;;5.20;;
21315;SDS011;10817;55.820;13.030;2024-03-06T15:04:48;6.68;;;4.78;;
21315;SDS011;10817;55.820;13.030;2024-03-06T15:07:17;7.85;;;4.25;;
21315;SDS011;10817;55.820;13.030;2024-03-06T15:09:44;9.23;;;5.05;;
21315;SDS011;10817;55.820;13.030;2024-03-06T15:12:11;9.05;;;4.45;;
21315;SDS011;10817;55.820;13.030;2024-03-06T15:14:50;8.55;;;4.70;;
21315;SDS011;10817;55.820;13.030;2024-03-06T15:19:39;7.68;;;3.55;;
21315;SDS011;10817;55.820;13.030;2024-03-06T15:21:01;13.70;;;4.65;;
21315;SDS011;10817;55.820;13.030;2024-03-06T15:48:35;7.95;;;3.95;;
21315;SDS011;10817;55.820;13.030;2024-03-06T15:51:02;7.18;;;3.72;;